sensor_id;sensor_type;location;lat;lon;timestamp;P1;durP1;ratioP1;P2;durP2;ratioP2
51556;SDS011;38766;53.194;5.532;2022-07-18T00:01:48;9.98;;;8.20;;
51556;SDS011;38766;53.194;5.532;2022-07-18T00:04:14;12.75;;;8.73;;
51556;SDS011;38766;53.194;5.532;2022-07-18T00:06:40;13.23;;;8.68;;
51556;SDS011;38766;53.194;5.532;2022-07-18T00:09:05;13.27;;;8.48;;
51556;SDS011;38766;53.194;5.532;2022-07-18T00:11:31;8.15;;;7.30;;
51556;SDS011;38766;53.194;5.532;2022-07-18T00:13:56;12.07;;;7.85;;
51556;SDS011;38766;53.194;5.532;2022-07-18T00:16:22;9.00;;;7.72;;
51556;SDS011;38766;53.194;5.532;2022-07-18T00:18:48;12.93;;;8.05;;
51556;SDS011;38766;53.194;5.532;2022-07-18T00:21:14;12.90;;;8.05;;
51556;SDS011;38766;53.194;5.532;2022-07-18T00:23:40;9.77;;;7.95;;
51556;SDS011;38766;53.194;5.532;2022-07-18T00:26:06;10.20;;;7.70;;
51556;SDS011;38766;53.194;5.532;2022-07-18T00:28:31;9.90;;;7.43;;
51556;SDS011;38766;53.194;5.532;2022-07-18T00:30:57;11.50;;;8.32;;
51556;SDS011;38766;53.194;5.532;2022-07-18T00:33:23;10.23;;;8.38;;
51556;SDS011;38766;53.194;5.532;2022-07-18T00:35:48;12.95;;;8.27;;
51556;SDS011;38766;53.194;5.532;2022-07-18T00:38:14;9.85;;;7.68;;
51556;SDS011;38766;53.194;5.532;2022-07-18T00:40:41;10.77;;;7.53;;
51556;SDS011;38766;53.194;5.532;2022-07-18T00:43:07;13.20;;;8.40;;
51556;SDS011;38766;53.194;5.532;2022-07-18T00:45:32;11.55;;;8.48;;
51556;SDS011;38766;53.194;5.532;2022-07-18T00:47:58;11.90;;;8.48;;
51556;SDS011;38766;53.194;5.532;2022-07-18T00:50:24;8.80;;;7.85;;
51556;SDS011;38766;53.194;5.532;2022-07-18T00:52:50;11.30;;;7.95;;
51556;SDS011;38766;53.194;5.532;2022-07-18T00:55:15;11.98;;;8.30;;
51556;SDS011;38766;53.194;5.532;2022-07-18T00:57:41;12.45;;;8.75;;
51556;SDS011;38766;53.194;5.532;2022-07-18T01:00:08;11.32;;;9.02;;
51556;SDS011;38766;53.194;5.532;2022-07-18T01:02:55;10.63;;;9.05;;
51556;SDS011;38766;53.194;5.532;2022-07-18T01:05:20;14.00;;;10.18;;
51556;SDS011;38766;53.194;5.532;2022-07-18T01:07:46;11.23;;;9.02;;
51556;SDS011;38766;53.194;5.532;2022-07-18T01:10:12;12.05;;;9.40;;
51556;SDS011;38766;53.194;5.532;2022-07-18T01:12:38;14.57;;;9.73;;
51556;SDS011;38766;53.194;5.532;2022-07-18T01:15:04;11.85;;;9.30;;
51556;SDS011;38766;53.194;5.532;2022-07-18T01:17:31;12.25;;;10.32;;
51556;SDS011;38766;53.194;5.532;2022-07-18T01:19:57;11.57;;;9.82;;
51556;SDS011;38766;53.194;5.532;2022-07-18T01:22:22;15.73;;;10.77;;
51556;SDS011;38766;53.194;5.532;2022-07-18T01:24:48;12.82;;;9.52;;
51556;SDS011;38766;53.194;5.532;2022-07-18T01:27:18;13.13;;;9.57;;
51556;SDS011;38766;53.194;5.532;2022-07-18T01:29:45;14.00;;;9.52;;
51556;SDS011;38766;53.194;5.532;2022-07-18T01:32:13;11.90;;;9.70;;
51556;SDS011;38766;53.194;5.532;2022-07-18T01:34:40;13.15;;;9.95;;
51556;SDS011;38766;53.194;5.532;2022-07-18T01:37:07;11.98;;;9.80;;
51556;SDS011;38766;53.194;5.532;2022-07-18T01:39:33;14.18;;;9.77;;
51556;SDS011;38766;53.194;5.532;2022-07-18T01:42:00;11.27;;;9.75;;
51556;SDS011;38766;53.194;5.532;2022-07-18T01:44:27;12.40;;;9.55;;
51556;SDS011;38766;53.194;5.532;2022-07-18T01:46:54;12.85;;;9.52;;
51556;SDS011;38766;53.194;5.532;2022-07-18T01:49:20;12.75;;;10.00;;
51556;SDS011;38766;53.194;5.532;2022-07-18T01:51:49;11.18;;;8.95;;
51556;SDS011;38766;53.194;5.532;2022-07-18T01:54:21;14.70;;;9.80;;
51556;SDS011;38766;53.194;5.532;2022-07-18T01:56:48;12.00;;;9.77;;
51556;SDS011;38766;53.194;5.532;2022-07-18T01:59:14;14.57;;;9.43;;
51556;SDS011;38766;53.194;5.532;2022-07-18T02:01:40;11.80;;;9.65;;
51556;SDS011;38766;53.194;5.532;2022-07-18T02:04:05;12.23;;;9.30;;
51556;SDS011;38766;53.194;5.532;2022-07-18T02:06:31;12.23;;;9.30;;
51556;SDS011;38766;53.194;5.532;2022-07-18T02:08:57;14.35;;;9.30;;
51556;SDS011;38766;53.194;5.532;2022-07-18T02:11:22;12.90;;;9.30;;
51556;SDS011;38766;53.194;5.532;2022-07-18T02:13:49;12.10;;;9.65;;
51556;SDS011;38766;53.194;5.532;2022-07-18T02:16:15;11.23;;;8.75;;
51556;SDS011;38766;53.194;5.532;2022-07-18T02:18:41;14.60;;;9.35;;
51556;SDS011;38766;53.194;5.532;2022-07-18T02:21:06;12.13;;;9.45;;
51556;SDS011;38766;53.194;5.532;2022-07-18T02:23:32;11.73;;;9.02;;
51556;SDS011;38766;53.194;5.532;2022-07-18T02:25:59;10.60;;;8.80;;
51556;SDS011;38766;53.194;5.532;2022-07-18T02:28:24;12.25;;;8.60;;
51556;SDS011;38766;53.194;5.532;2022-07-18T02:30:50;12.52;;;8.90;;
51556;SDS011;38766;53.194;5.532;2022-07-18T02:33:16;11.70;;;8.93;;
51556;SDS011;38766;53.194;5.532;2022-07-18T02:35:42;10.98;;;8.55;;
51556;SDS011;38766;53.194;5.532;2022-07-18T02:38:08;13.40;;;8.80;;
51556;SDS011;38766;53.194;5.532;2022-07-18T02:40:35;12.40;;;9.07;;
51556;SDS011;38766;53.194;5.532;2022-07-18T02:43:00;14.00;;;9.05;;
51556;SDS011;38766;53.194;5.532;2022-07-18T02:45:26;10.85;;;8.85;;
51556;SDS011;38766;53.194;5.532;2022-07-18T02:47:52;13.85;;;9.05;;
51556;SDS011;38766;53.194;5.532;2022-07-18T02:50:18;13.38;;;8.48;;
51556;SDS011;38766;53.194;5.532;2022-07-18T02:52:44;10.98;;;8.30;;
51556;SDS011;38766;53.194;5.532;2022-07-18T02:55:10;11.23;;;8.63;;
51556;SDS011;38766;53.194;5.532;2022-07-18T02:57:37;14.27;;;8.98;;
51556;SDS011;38766;53.194;5.532;2022-07-18T03:00:04;10.38;;;8.10;;
51556;SDS011;38766;53.194;5.532;2022-07-18T03:02:32;11.88;;;8.82;;
51556;SDS011;38766;53.194;5.532;2022-07-18T03:04:57;13.10;;;8.85;;
51556;SDS011;38766;53.194;5.532;2022-07-18T03:07:23;12.18;;;8.93;;
51556;SDS011;38766;53.194;5.532;2022-07-18T03:09:48;11.30;;;8.95;;
51556;SDS011;38766;53.194;5.532;2022-07-18T03:12:14;12.43;;;7.95;;
51556;SDS011;38766;53.194;5.532;2022-07-18T03:14:40;10.75;;;8.00;;
51556;SDS011;38766;53.194;5.532;2022-07-18T03:17:05;10.68;;;8.07;;
51556;SDS011;38766;53.194;5.532;2022-07-18T03:19:31;10.73;;;8.13;;
51556;SDS011;38766;53.194;5.532;2022-07-18T03:21:57;10.73;;;7.85;;
51556;SDS011;38766;53.194;5.532;2022-07-18T03:24:23;11.93;;;7.82;;
51556;SDS011;38766;53.194;5.532;2022-07-18T03:26:49;11.95;;;8.18;;
51556;SDS011;38766;53.194;5.532;2022-07-18T03:29:14;11.43;;;7.82;;
51556;SDS011;38766;53.194;5.532;2022-07-18T03:31:40;9.05;;;7.25;;
51556;SDS011;38766;53.194;5.532;2022-07-18T03:34:06;9.77;;;7.38;;
51556;SDS011;38766;53.194;5.532;2022-07-18T03:36:31;12.75;;;7.70;;
51556;SDS011;38766;53.194;5.532;2022-07-18T03:38:57;10.55;;;6.82;;
51556;SDS011;38766;53.194;5.532;2022-07-18T03:41:23;10.50;;;7.20;;
51556;SDS011;38766;53.194;5.532;2022-07-18T03:43:48;10.35;;;7.07;;
51556;SDS011;38766;53.194;5.532;2022-07-18T03:46:14;10.38;;;7.55;;
51556;SDS011;38766;53.194;5.532;2022-07-18T03:48:40;11.63;;;7.38;;
51556;SDS011;38766;53.194;5.532;2022-07-18T03:51:06;9.85;;;7.22;;
51556;SDS011;38766;53.194;5.532;2022-07-18T03:53:31;10.38;;;7.32;;
51556;SDS011;38766;53.194;5.532;2022-07-18T03:55:58;10.00;;;6.97;;
51556;SDS011;38766;53.194;5.532;2022-07-18T03:58:23;9.02;;;6.93;;
51556;SDS011;38766;53.194;5.532;2022-07-18T04:00:49;9.35;;;6.90;;
51556;SDS011;38766;53.194;5.532;2022-07-18T04:03:15;10.45;;;6.97;;
51556;SDS011;38766;53.194;5.532;2022-07-18T04:05:41;10.80;;;6.65;;
51556;SDS011;38766;53.194;5.532;2022-07-18T04:08:07;12.95;;;7.70;;
51556;SDS011;38766;53.194;5.532;2022-07-18T04:10:32;10.57;;;7.28;;
51556;SDS011;38766;53.194;5.532;2022-07-18T04:12:58;10.30;;;7.57;;
51556;SDS011;38766;53.194;5.532;2022-07-18T04:15:25;8.80;;;7.20;;
51556;SDS011;38766;53.194;5.532;2022-07-18T04:17:51;9.82;;;7.80;;
51556;SDS011;38766;53.194;5.532;2022-07-18T04:20:17;10.68;;;7.53;;
51556;SDS011;38766;53.194;5.532;2022-07-18T04:22:49;10.00;;;7.18;;
51556;SDS011;38766;53.194;5.532;2022-07-18T04:25:17;10.23;;;7.07;;
51556;SDS011;38766;53.194;5.532;2022-07-18T04:27:45;8.90;;;6.75;;
51556;SDS011;38766;53.194;5.532;2022-07-18T04:30:11;11.27;;;7.30;;
51556;SDS011;38766;53.194;5.532;2022-07-18T04:32:38;12.00;;;7.72;;
51556;SDS011;38766;53.194;5.532;2022-07-18T04:35:04;12.85;;;7.32;;
51556;SDS011;38766;53.194;5.532;2022-07-18T04:37:31;11.05;;;7.10;;
51556;SDS011;38766;53.194;5.532;2022-07-18T04:39:57;10.00;;;6.75;;
51556;SDS011;38766;53.194;5.532;2022-07-18T04:42:23;11.88;;;7.38;;
51556;SDS011;38766;53.194;5.532;2022-07-18T04:44:49;11.10;;;7.43;;
51556;SDS011;38766;53.194;5.532;2022-07-18T04:47:14;10.57;;;7.60;;
51556;SDS011;38766;53.194;5.532;2022-07-18T04:49:40;10.05;;;7.35;;
51556;SDS011;38766;53.194;5.532;2022-07-18T04:52:05;12.48;;;6.95;;
51556;SDS011;38766;53.194;5.532;2022-07-18T04:54:31;11.50;;;7.57;;
51556;SDS011;38766;53.194;5.532;2022-07-18T04:56:57;9.45;;;7.13;;
51556;SDS011;38766;53.194;5.532;2022-07-18T04:59:22;9.30;;;6.90;;
51556;SDS011;38766;53.194;5.532;2022-07-18T05:01:48;9.02;;;6.65;;
51556;SDS011;38766;53.194;5.532;2022-07-18T05:04:13;12.30;;;7.68;;
51556;SDS011;38766;53.194;5.532;2022-07-18T05:06:39;12.45;;;7.00;;
51556;SDS011;38766;53.194;5.532;2022-07-18T05:09:05;11.65;;;7.10;;
51556;SDS011;38766;53.194;5.532;2022-07-18T05:11:30;9.85;;;6.65;;
51556;SDS011;38766;53.194;5.532;2022-07-18T05:13:56;9.80;;;7.18;;
51556;SDS011;38766;53.194;5.532;2022-07-18T05:16:21;12.43;;;8.10;;
51556;SDS011;38766;53.194;5.532;2022-07-18T05:18:47;12.43;;;7.78;;
51556;SDS011;38766;53.194;5.532;2022-07-18T05:21:13;12.00;;;8.05;;
51556;SDS011;38766;53.194;5.532;2022-07-18T05:23:38;11.43;;;7.40;;
51556;SDS011;38766;53.194;5.532;2022-07-18T05:26:04;10.27;;;7.85;;
51556;SDS011;38766;53.194;5.532;2022-07-18T05:28:30;11.30;;;7.70;;
51556;SDS011;38766;53.194;5.532;2022-07-18T05:30:55;9.77;;;7.15;;
51556;SDS011;38766;53.194;5.532;2022-07-18T05:33:21;9.82;;;7.10;;
51556;SDS011;38766;53.194;5.532;2022-07-18T05:35:47;10.77;;;7.40;;
51556;SDS011;38766;53.194;5.532;2022-07-18T05:38:12;11.38;;;7.43;;
51556;SDS011;38766;53.194;5.532;2022-07-18T05:40:38;13.30;;;7.85;;
51556;SDS011;38766;53.194;5.532;2022-07-18T05:43:04;9.25;;;6.22;;
51556;SDS011;38766;53.194;5.532;2022-07-18T05:45:29;12.10;;;8.07;;
51556;SDS011;38766;53.194;5.532;2022-07-18T05:47:55;10.23;;;6.75;;
51556;SDS011;38766;53.194;5.532;2022-07-18T05:50:22;9.82;;;7.18;;
51556;SDS011;38766;53.194;5.532;2022-07-18T05:52:48;10.60;;;7.22;;
51556;SDS011;38766;53.194;5.532;2022-07-18T05:55:14;10.50;;;6.82;;
51556;SDS011;38766;53.194;5.532;2022-07-18T05:57:40;9.63;;;7.05;;
51556;SDS011;38766;53.194;5.532;2022-07-18T06:00:07;10.23;;;6.78;;
51556;SDS011;38766;53.194;5.532;2022-07-18T06:02:34;9.23;;;7.05;;
51556;SDS011;38766;53.194;5.532;2022-07-18T06:05:00;13.68;;;6.90;;
51556;SDS011;38766;53.194;5.532;2022-07-18T06:07:25;10.07;;;6.50;;
51556;SDS011;38766;53.194;5.532;2022-07-18T06:09:51;9.65;;;7.00;;
51556;SDS011;38766;53.194;5.532;2022-07-18T06:12:17;9.85;;;6.78;;
51556;SDS011;38766;53.194;5.532;2022-07-18T06:14:43;11.95;;;7.88;;
51556;SDS011;38766;53.194;5.532;2022-07-18T06:17:08;11.55;;;7.53;;
51556;SDS011;38766;53.194;5.532;2022-07-18T06:19:34;12.40;;;7.20;;
51556;SDS011;38766;53.194;5.532;2022-07-18T06:22:00;7.80;;;6.47;;
51556;SDS011;38766;53.194;5.532;2022-07-18T06:24:26;9.88;;;6.93;;
51556;SDS011;38766;53.194;5.532;2022-07-18T06:26:52;9.20;;;6.32;;
51556;SDS011;38766;53.194;5.532;2022-07-18T06:29:17;10.98;;;6.93;;
51556;SDS011;38766;53.194;5.532;2022-07-18T06:31:43;9.65;;;6.60;;
51556;SDS011;38766;53.194;5.532;2022-07-18T06:34:09;10.75;;;6.95;;
51556;SDS011;38766;53.194;5.532;2022-07-18T06:36:35;8.60;;;6.63;;
51556;SDS011;38766;53.194;5.532;2022-07-18T06:39:00;10.15;;;6.85;;
51556;SDS011;38766;53.194;5.532;2022-07-18T06:41:33;10.00;;;6.85;;
51556;SDS011;38766;53.194;5.532;2022-07-18T06:43:59;10.38;;;6.63;;
51556;SDS011;38766;53.194;5.532;2022-07-18T06:46:24;10.63;;;6.85;;
51556;SDS011;38766;53.194;5.532;2022-07-18T06:48:50;10.98;;;6.22;;
51556;SDS011;38766;53.194;5.532;2022-07-18T06:51:16;8.85;;;6.40;;
51556;SDS011;38766;53.194;5.532;2022-07-18T06:53:41;11.82;;;6.43;;
51556;SDS011;38766;53.194;5.532;2022-07-18T06:56:07;8.93;;;6.57;;
51556;SDS011;38766;53.194;5.532;2022-07-18T06:58:33;9.20;;;6.40;;
51556;SDS011;38766;53.194;5.532;2022-07-18T07:00:58;8.98;;;6.47;;
51556;SDS011;38766;53.194;5.532;2022-07-18T07:03:24;7.63;;;6.07;;
51556;SDS011;38766;53.194;5.532;2022-07-18T07:05:50;10.65;;;6.88;;
51556;SDS011;38766;53.194;5.532;2022-07-18T07:08:16;9.95;;;6.43;;
51556;SDS011;38766;53.194;5.532;2022-07-18T07:10:41;8.93;;;5.95;;
51556;SDS011;38766;53.194;5.532;2022-07-18T07:13:07;9.00;;;5.90;;
51556;SDS011;38766;53.194;5.532;2022-07-18T07:15:33;7.97;;;5.53;;
51556;SDS011;38766;53.194;5.532;2022-07-18T07:17:59;10.50;;;6.35;;
51556;SDS011;38766;53.194;5.532;2022-07-18T07:20:24;10.18;;;5.97;;
51556;SDS011;38766;53.194;5.532;2022-07-18T07:22:51;7.78;;;5.80;;
51556;SDS011;38766;53.194;5.532;2022-07-18T07:25:22;7.32;;;5.63;;
51556;SDS011;38766;53.194;5.532;2022-07-18T07:27:49;9.50;;;5.65;;
51556;SDS011;38766;53.194;5.532;2022-07-18T07:30:16;6.82;;;4.88;;
51556;SDS011;38766;53.194;5.532;2022-07-18T07:32:42;8.95;;;4.93;;
51556;SDS011;38766;53.194;5.532;2022-07-18T07:35:09;7.70;;;4.88;;
51556;SDS011;38766;53.194;5.532;2022-07-18T07:37:44;8.00;;;4.63;;
51556;SDS011;38766;53.194;5.532;2022-07-18T07:40:12;9.52;;;4.82;;
51556;SDS011;38766;53.194;5.532;2022-07-18T07:42:38;8.25;;;4.28;;
51556;SDS011;38766;53.194;5.532;2022-07-18T07:45:04;7.57;;;3.72;;
51556;SDS011;38766;53.194;5.532;2022-07-18T07:47:31;7.78;;;3.67;;
51556;SDS011;38766;53.194;5.532;2022-07-18T07:49:57;8.13;;;4.07;;
51556;SDS011;38766;53.194;5.532;2022-07-18T07:52:23;5.82;;;3.80;;
51556;SDS011;38766;53.194;5.532;2022-07-18T07:54:50;6.82;;;4.13;;
51556;SDS011;38766;53.194;5.532;2022-07-18T07:57:16;6.63;;;3.70;;
51556;SDS011;38766;53.194;5.532;2022-07-18T07:59:41;5.20;;;3.53;;
51556;SDS011;38766;53.194;5.532;2022-07-18T08:02:07;6.93;;;4.03;;
51556;SDS011;38766;53.194;5.532;2022-07-18T08:04:33;10.88;;;4.50;;
51556;SDS011;38766;53.194;5.532;2022-07-18T08:06:59;7.05;;;3.65;;
51556;SDS011;38766;53.194;5.532;2022-07-18T08:09:24;11.02;;;4.35;;
51556;SDS011;38766;53.194;5.532;2022-07-18T08:11:50;6.32;;;4.03;;
51556;SDS011;38766;53.194;5.532;2022-07-18T08:14:16;7.13;;;4.30;;
51556;SDS011;38766;53.194;5.532;2022-07-18T08:16:41;6.93;;;3.67;;
51556;SDS011;38766;53.194;5.532;2022-07-18T08:19:07;6.43;;;3.95;;
51556;SDS011;38766;53.194;5.532;2022-07-18T08:21:33;7.78;;;3.75;;
51556;SDS011;38766;53.194;5.532;2022-07-18T08:23:58;6.80;;;4.25;;
51556;SDS011;38766;53.194;5.532;2022-07-18T08:26:24;10.43;;;4.18;;
51556;SDS011;38766;53.194;5.532;2022-07-18T08:28:50;5.50;;;3.70;;
51556;SDS011;38766;53.194;5.532;2022-07-18T08:31:17;7.40;;;3.53;;
51556;SDS011;38766;53.194;5.532;2022-07-18T08:33:44;7.82;;;3.80;;
51556;SDS011;38766;53.194;5.532;2022-07-18T08:36:10;8.23;;;4.15;;
51556;SDS011;38766;53.194;5.532;2022-07-18T08:38:36;6.95;;;3.40;;
51556;SDS011;38766;53.194;5.532;2022-07-18T08:41:01;5.22;;;3.13;;
51556;SDS011;38766;53.194;5.532;2022-07-18T08:43:28;6.82;;;3.25;;
51556;SDS011;38766;53.194;5.532;2022-07-18T08:45:55;8.15;;;3.00;;
51556;SDS011;38766;53.194;5.532;2022-07-18T08:48:26;10.00;;;2.92;;
51556;SDS011;38766;53.194;5.532;2022-07-18T08:50:52;4.05;;;2.78;;
51556;SDS011;38766;53.194;5.532;2022-07-18T08:53:18;6.40;;;2.90;;
51556;SDS011;38766;53.194;5.532;2022-07-18T08:55:45;4.10;;;2.40;;
51556;SDS011;38766;53.194;5.532;2022-07-18T08:58:11;6.63;;;2.58;;
51556;SDS011;38766;53.194;5.532;2022-07-18T09:00:39;4.05;;;2.30;;
51556;SDS011;38766;53.194;5.532;2022-07-18T09:03:05;14.60;;;2.38;;
51556;SDS011;38766;53.194;5.532;2022-07-18T09:05:31;5.18;;;2.60;;
51556;SDS011;38766;53.194;5.532;2022-07-18T09:08:13;5.47;;;2.00;;
51556;SDS011;38766;53.194;5.532;2022-07-18T09:10:47;5.15;;;2.30;;
51556;SDS011;38766;53.194;5.532;2022-07-18T09:13:15;6.22;;;2.60;;
51556;SDS011;38766;53.194;5.532;2022-07-18T09:18:33;5.75;;;2.20;;
51556;SDS011;38766;53.194;5.532;2022-07-18T09:21:07;3.17;;;2.13;;
51556;SDS011;38766;53.194;5.532;2022-07-18T09:23:40;4.93;;;2.35;;
51556;SDS011;38766;53.194;5.532;2022-07-18T09:26:07;4.28;;;2.35;;
51556;SDS011;38766;53.194;5.532;2022-07-18T09:28:53;6.47;;;2.30;;
51556;SDS011;38766;53.194;5.532;2022-07-18T09:31:20;6.45;;;2.30;;
51556;SDS011;38766;53.194;5.532;2022-07-18T09:33:57;5.07;;;2.55;;
51556;SDS011;38766;53.194;5.532;2022-07-18T09:36:24;5.43;;;2.80;;
51556;SDS011;38766;53.194;5.532;2022-07-18T09:38:51;3.70;;;2.15;;
51556;SDS011;38766;53.194;5.532;2022-07-18T09:41:21;4.10;;;2.40;;
51556;SDS011;38766;53.194;5.532;2022-07-18T09:43:49;7.68;;;2.45;;
51556;SDS011;38766;53.194;5.532;2022-07-18T09:46:14;3.17;;;2.10;;
51556;SDS011;38766;53.194;5.532;2022-07-18T09:48:40;3.95;;;2.15;;
51556;SDS011;38766;53.194;5.532;2022-07-18T09:51:06;5.20;;;2.60;;
51556;SDS011;38766;53.194;5.532;2022-07-18T09:56:06;3.10;;;2.20;;
51556;SDS011;38766;53.194;5.532;2022-07-18T09:58:35;10.38;;;3.10;;
51556;SDS011;38766;53.194;5.532;2022-07-18T10:01:03;5.78;;;2.50;;
51556;SDS011;38766;53.194;5.532;2022-07-18T10:03:29;5.13;;;2.60;;
51556;SDS011;38766;53.194;5.532;2022-07-18T10:05:57;9.73;;;2.92;;
51556;SDS011;38766;53.194;5.532;2022-07-18T10:08:25;7.88;;;2.55;;
51556;SDS011;38766;53.194;5.532;2022-07-18T10:10:52;4.65;;;2.55;;
51556;SDS011;38766;53.194;5.532;2022-07-18T10:13:20;5.03;;;2.40;;
51556;SDS011;38766;53.194;5.532;2022-07-18T10:15:47;5.13;;;2.47;;
51556;SDS011;38766;53.194;5.532;2022-07-18T10:18:17;6.97;;;2.50;;
51556;SDS011;38766;53.194;5.532;2022-07-18T10:20:49;5.32;;;2.58;;
51556;SDS011;38766;53.194;5.532;2022-07-18T10:23:23;3.08;;;2.10;;
51556;SDS011;38766;53.194;5.532;2022-07-18T10:26:19;5.10;;;2.55;;
51556;SDS011;38766;53.194;5.532;2022-07-18T10:31:28;6.43;;;2.40;;
51556;SDS011;38766;53.194;5.532;2022-07-18T10:36:29;3.08;;;2.17;;
51556;SDS011;38766;53.194;5.532;2022-07-18T10:39:06;8.70;;;2.28;;
51556;SDS011;38766;53.194;5.532;2022-07-18T10:57:33;4.43;;;2.17;;
51556;SDS011;38766;53.194;5.532;2022-07-18T11:00:04;5.78;;;2.00;;
51556;SDS011;38766;53.194;5.532;2022-07-18T11:02:45;5.53;;;2.50;;
51556;SDS011;38766;53.194;5.532;2022-07-18T11:15:56;5.38;;;2.28;;
51556;SDS011;38766;53.194;5.532;2022-07-18T11:18:23;4.35;;;2.13;;
51556;SDS011;38766;53.194;5.532;2022-07-18T11:20:48;11.93;;;2.60;;
51556;SDS011;38766;53.194;5.532;2022-07-18T11:25:42;6.18;;;2.67;;
51556;SDS011;38766;53.194;5.532;2022-07-18T11:28:09;2.55;;;2.33;;
51556;SDS011;38766;53.194;5.532;2022-07-18T11:30:35;4.80;;;2.30;;
51556;SDS011;38766;53.194;5.532;2022-07-18T11:33:02;8.25;;;2.30;;
51556;SDS011;38766;53.194;5.532;2022-07-18T11:35:28;3.95;;;2.20;;
51556;SDS011;38766;53.194;5.532;2022-07-18T11:37:54;5.15;;;2.20;;
51556;SDS011;38766;53.194;5.532;2022-07-18T11:40:21;6.57;;;2.40;;
51556;SDS011;38766;53.194;5.532;2022-07-18T11:42:47;4.20;;;2.80;;
51556;SDS011;38766;53.194;5.532;2022-07-18T11:45:14;4.53;;;2.20;;
51556;SDS011;38766;53.194;5.532;2022-07-18T11:47:50;3.42;;;2.38;;
51556;SDS011;38766;53.194;5.532;2022-07-18T11:50:17;7.40;;;2.38;;
51556;SDS011;38766;53.194;5.532;2022-07-18T11:52:55;4.85;;;2.33;;
51556;SDS011;38766;53.194;5.532;2022-07-18T11:55:31;4.93;;;2.40;;
51556;SDS011;38766;53.194;5.532;2022-07-18T11:58:11;4.80;;;2.65;;
51556;SDS011;38766;53.194;5.532;2022-07-18T12:00:38;5.38;;;2.35;;
51556;SDS011;38766;53.194;5.532;2022-07-18T12:03:12;5.25;;;2.65;;
51556;SDS011;38766;53.194;5.532;2022-07-18T12:05:40;6.95;;;2.90;;
51556;SDS011;38766;53.194;5.532;2022-07-18T12:18:58;5.68;;;3.40;;
51556;SDS011;38766;53.194;5.532;2022-07-18T12:21:43;6.65;;;2.90;;
51556;SDS011;38766;53.194;5.532;2022-07-18T12:24:30;7.30;;;2.65;;
51556;SDS011;38766;53.194;5.532;2022-07-18T12:32:42;5.70;;;2.67;;
51556;SDS011;38766;53.194;5.532;2022-07-18T12:38:04;7.00;;;2.72;;
51556;SDS011;38766;53.194;5.532;2022-07-18T12:43:22;5.38;;;2.90;;
51556;SDS011;38766;53.194;5.532;2022-07-18T12:45:56;4.60;;;2.88;;
51556;SDS011;38766;53.194;5.532;2022-07-18T12:48:23;4.07;;;2.60;;
51556;SDS011;38766;53.194;5.532;2022-07-18T12:50:59;5.20;;;2.63;;
51556;SDS011;38766;53.194;5.532;2022-07-18T12:53:26;3.10;;;2.47;;
51556;SDS011;38766;53.194;5.532;2022-07-18T12:55:53;6.55;;;2.83;;
51556;SDS011;38766;53.194;5.532;2022-07-18T12:58:19;6.20;;;2.53;;
51556;SDS011;38766;53.194;5.532;2022-07-18T13:00:46;6.28;;;2.70;;
51556;SDS011;38766;53.194;5.532;2022-07-18T13:03:12;7.10;;;2.72;;
51556;SDS011;38766;53.194;5.532;2022-07-18T13:05:38;8.70;;;2.97;;
51556;SDS011;38766;53.194;5.532;2022-07-18T13:08:03;4.07;;;2.63;;
51556;SDS011;38766;53.194;5.532;2022-07-18T13:10:31;3.58;;;2.63;;
51556;SDS011;38766;53.194;5.532;2022-07-18T13:12:57;5.88;;;2.50;;
51556;SDS011;38766;53.194;5.532;2022-07-18T13:15:23;5.78;;;2.70;;
51556;SDS011;38766;53.194;5.532;2022-07-18T13:17:49;5.28;;;2.50;;
51556;SDS011;38766;53.194;5.532;2022-07-18T13:20:15;4.82;;;2.65;;
51556;SDS011;38766;53.194;5.532;2022-07-18T13:22:41;4.97;;;2.55;;
51556;SDS011;38766;53.194;5.532;2022-07-18T13:25:07;4.80;;;2.15;;
51556;SDS011;38766;53.194;5.532;2022-07-18T13:27:34;3.47;;;2.33;;
51556;SDS011;38766;53.194;5.532;2022-07-18T13:30:01;7.25;;;2.88;;
51556;SDS011;38766;53.194;5.532;2022-07-18T13:32:28;6.07;;;2.50;;
51556;SDS011;38766;53.194;5.532;2022-07-18T13:34:54;5.45;;;2.50;;
51556;SDS011;38766;53.194;5.532;2022-07-18T13:37:20;3.58;;;2.70;;
51556;SDS011;38766;53.194;5.532;2022-07-18T13:39:46;4.78;;;2.65;;
51556;SDS011;38766;53.194;5.532;2022-07-18T13:42:11;4.53;;;2.75;;
51556;SDS011;38766;53.194;5.532;2022-07-18T13:44:43;4.65;;;2.33;;
51556;SDS011;38766;53.194;5.532;2022-07-18T13:47:12;5.80;;;2.70;;
51556;SDS011;38766;53.194;5.532;2022-07-18T13:49:39;5.50;;;3.20;;
51556;SDS011;38766;53.194;5.532;2022-07-18T13:52:04;3.70;;;2.50;;
51556;SDS011;38766;53.194;5.532;2022-07-18T13:54:30;6.22;;;2.95;;
51556;SDS011;38766;53.194;5.532;2022-07-18T13:56:56;5.80;;;3.00;;
51556;SDS011;38766;53.194;5.532;2022-07-18T13:59:22;3.97;;;2.95;;
51556;SDS011;38766;53.194;5.532;2022-07-18T14:01:47;5.82;;;2.80;;
51556;SDS011;38766;53.194;5.532;2022-07-18T14:04:14;5.72;;;3.05;;
51556;SDS011;38766;53.194;5.532;2022-07-18T14:06:41;3.90;;;2.83;;
51556;SDS011;38766;53.194;5.532;2022-07-18T14:09:06;6.03;;;2.70;;
51556;SDS011;38766;53.194;5.532;2022-07-18T14:11:35;4.75;;;3.08;;
51556;SDS011;38766;53.194;5.532;2022-07-18T14:14:01;6.90;;;3.15;;
51556;SDS011;38766;53.194;5.532;2022-07-18T14:16:28;6.15;;;3.35;;
51556;SDS011;38766;53.194;5.532;2022-07-18T14:18:54;7.70;;;2.83;;
51556;SDS011;38766;53.194;5.532;2022-07-18T14:21:20;5.78;;;2.90;;
51556;SDS011;38766;53.194;5.532;2022-07-18T14:23:46;4.38;;;3.00;;
51556;SDS011;38766;53.194;5.532;2022-07-18T14:26:11;10.05;;;3.25;;
51556;SDS011;38766;53.194;5.532;2022-07-18T14:28:37;3.08;;;2.67;;
51556;SDS011;38766;53.194;5.532;2022-07-18T14:31:03;4.90;;;3.08;;
51556;SDS011;38766;53.194;5.532;2022-07-18T14:33:28;4.15;;;2.85;;
51556;SDS011;38766;53.194;5.532;2022-07-18T14:35:54;8.00;;;3.63;;
51556;SDS011;38766;53.194;5.532;2022-07-18T14:38:20;6.35;;;3.33;;
51556;SDS011;38766;53.194;5.532;2022-07-18T14:40:45;11.73;;;3.25;;
51556;SDS011;38766;53.194;5.532;2022-07-18T14:43:11;5.03;;;3.33;;
51556;SDS011;38766;53.194;5.532;2022-07-18T14:45:37;5.95;;;3.30;;
51556;SDS011;38766;53.194;5.532;2022-07-18T14:48:02;7.60;;;3.30;;
51556;SDS011;38766;53.194;5.532;2022-07-18T14:50:28;4.78;;;2.95;;
51556;SDS011;38766;53.194;5.532;2022-07-18T14:52:54;4.78;;;3.00;;
51556;SDS011;38766;53.194;5.532;2022-07-18T14:55:19;4.72;;;3.38;;
51556;SDS011;38766;53.194;5.532;2022-07-18T14:57:45;4.63;;;3.28;;
51556;SDS011;38766;53.194;5.532;2022-07-18T15:00:11;5.10;;;3.05;;
51556;SDS011;38766;53.194;5.532;2022-07-18T15:02:37;5.18;;;3.15;;
51556;SDS011;38766;53.194;5.532;2022-07-18T15:05:03;6.32;;;3.20;;
51556;SDS011;38766;53.194;5.532;2022-07-18T15:07:30;6.10;;;3.58;;
51556;SDS011;38766;53.194;5.532;2022-07-18T15:09:55;4.93;;;3.17;;
51556;SDS011;38766;53.194;5.532;2022-07-18T15:12:21;4.72;;;3.22;;
51556;SDS011;38766;53.194;5.532;2022-07-18T15:14:46;4.57;;;3.33;;
51556;SDS011;38766;53.194;5.532;2022-07-18T15:17:12;3.88;;;2.85;;
51556;SDS011;38766;53.194;5.532;2022-07-18T15:19:38;4.65;;;2.70;;
51556;SDS011;38766;53.194;5.532;2022-07-18T15:22:04;4.85;;;3.38;;
51556;SDS011;38766;53.194;5.532;2022-07-18T15:24:33;7.05;;;2.80;;
51556;SDS011;38766;53.194;5.532;2022-07-18T15:26:59;7.72;;;2.78;;
51556;SDS011;38766;53.194;5.532;2022-07-18T15:29:25;5.65;;;3.08;;
51556;SDS011;38766;53.194;5.532;2022-07-18T15:31:51;6.30;;;3.15;;
51556;SDS011;38766;53.194;5.532;2022-07-18T15:34:17;5.25;;;2.75;;
51556;SDS011;38766;53.194;5.532;2022-07-18T15:36:43;5.07;;;2.80;;
51556;SDS011;38766;53.194;5.532;2022-07-18T15:39:08;7.97;;;2.70;;
51556;SDS011;38766;53.194;5.532;2022-07-18T15:41:34;7.07;;;4.03;;
51556;SDS011;38766;53.194;5.532;2022-07-18T15:43:59;5.55;;;3.00;;